Terminal Aerodrome Forecast
Issued by NWS

Home | Current Version | Previous Version | Text Only | Print | Product List | Glossary On
Versions: 1 2 3 4 5 6 7 8 9 10 11 12 13
000
FTPA31 PHFO 251126
TAFHOG
TAF
PHOG 251126Z 2512/2612 15005KT P6SM VCSH FEW010 SCT020 BKN080
     FM251900 02011KT P6SM VCSH SCT025 BKN080
     FM260500 VRB05KT P6SM VCSH SCT020 BKN080
      AMD LTD TO VIS AND WIND TIL 251600=

USA.gov is the U.S. government's official web portal to all federal, state and local government web resources and services.